Time,TemperatureF,DewpointF,PressureIn,WindDirection,WindDirectionDegrees,WindSpeedMPH,WindSpeedGustMPH,Humidity,HourlyPrecipIn,Conditions,Clouds,dailyrainin,SoftwareType,DateUTC
2013-03-06 00:00:00,33.1,31.0,30.07,South,188,0.0,0.0,92,0.00,RA,,0.00,WeatherDisplay:10.37,2013-03-06 05:00:00,
2013-03-06 00:05:00,33.1,31.0,30.07,South,188,0.0,0.0,92,0.00,RA,,0.00,WeatherDisplay:10.37,2013-03-06 05:05:00,
2013-03-06 00:10:00,33.0,30.9,30.07,South,188,0.0,0.0,92,0.00,,,0.00,WeatherDisplay:10.37,2013-03-06 05:10:00,
2013-03-06 00:15:00,33.1,31.0,30.07,South,188,0.0,0.0,92,0.00,,,0.00,WeatherDisplay:10.37,2013-03-06 05:15:00,
2013-03-06 00:20:00,33.0,30.9,30.07,South,188,0.0,0.0,92,0.00,,,0.00,WeatherDisplay:10.37,2013-03-06 05:20:00,
2013-03-06 00:25:00,33.0,30.9,30.07,South,188,0.0,0.0,92,0.00,,,0.00,WeatherDisplay:10.37,2013-03-06 05:25:00,
2013-03-06 00:30:00,32.9,30.8,30.07,South,188,0.0,0.0,92,0.00,,,0.00,WeatherDisplay:10.37,2013-03-06 05:30:00,
2013-03-06 00:35:00,32.9,30.8,30.07,South,188,0.0,0.0,92,0.00,,,0.00,WeatherDisplay:10.37,2013-03-06 05:35:00,
2013-03-06 00:40:00,32.9,30.8,30.07,South,188,0.0,0.0,92,0.00,,,0.00,WeatherDisplay:10.37,2013-03-06 05:40:00,
2013-03-06 00:45:00,32.8,30.7,30.07,South,188,0.0,0.0,92,0.00,,,0.00,WeatherDisplay:10.37,2013-03-06 05:45:00,
2013-03-06 00:50:00,32.7,30.6,30.07,South,188,0.0,0.0,92,0.00,,,0.00,WeatherDisplay:10.37,2013-03-06 05:50:00,
2013-03-06 00:55:00,32.7,30.6,30.07,South,188,0.0,0.0,92,0.00,,,0.00,WeatherDisplay:10.37,2013-03-06 05:55:00,
2013-03-06 01:00:00,32.7,30.6,30.07,South,188,0.0,0.0,92,0.00,,,0.00,WeatherDisplay:10.37,2013-03-06 06:00:00,
2013-03-06 01:05:00,32.7,30.6,30.07,South,188,0.0,0.0,92,0.00,,,0.00,WeatherDisplay:10.37,2013-03-06 06:05:00,
2013-03-06 01:10:00,32.7,30.6,30.07,South,188,0.0,0.0,92,0.00,,,0.00,WeatherDisplay:10.37,2013-03-06 06:10:00,
2013-03-06 01:15:00,32.7,30.6,30.07,South,188,0.0,0.0,92,0.00,,,0.00,WeatherDisplay:10.37,2013-03-06 06:15:00,
2013-03-06 01:20:00,32.7,30.6,30.08,South,188,0.0,0.0,92,0.00,,,0.00,WeatherDisplay:10.37,2013-03-06 06:20:00,
2013-03-06 01:25:00,32.7,30.6,30.07,South,188,0.0,0.0,92,0.00,,,0.00,WeatherDisplay:10.37,2013-03-06 06:25:00,
2013-03-06 01:30:00,32.6,30.5,30.07,South,188,0.0,0.0,92,0.00,,,0.00,WeatherDisplay:10.37,2013-03-06 06:30:00,
2013-03-06 01:35:00,32.6,30.5,30.07,South,188,0.0,0.0,92,0.00,,,0.00,WeatherDisplay:10.37,2013-03-06 06:35:00,
2013-03-06 01:40:00,32.6,30.8,30.08,South,188,0.0,0.0,93,0.00,,,0.00,WeatherDisplay:10.37,2013-03-06 06:40:00,
2013-03-06 01:45:00,32.7,30.9,30.08,South,188,0.0,0.0,93,0.00,,,0.00,WeatherDisplay:10.37,2013-03-06 06:45:00,
2013-03-06 01:50:00,32.8,31.0,30.08,South,188,0.0,0.0,93,0.00,,,0.00,WeatherDisplay:10.37,2013-03-06 06:50:00,
2013-03-06 01:55:00,32.8,31.0,30.08,South,188,0.0,0.0,93,0.00,,,0.00,WeatherDisplay:10.37,2013-03-06 06:55:00,
2013-03-06 02:00:00,32.8,31.0,30.08,South,188,0.0,0.0,93,0.00,,,0.00,WeatherDisplay:10.37,2013-03-06 07:00:00,
2013-03-06 02:05:00,33.0,31.5,30.08,North,355,0.0,0.0,94,0.00,,,0.00,WeatherDisplay:10.37,2013-03-06 07:05:00,
2013-03-06 02:10:00,33.1,31.6,30.07,SSE,166,0.0,1.1,94,0.00,,,0.00,WeatherDisplay:10.37,2013-03-06 07:10:00,
2013-03-06 02:15:00,33.2,31.7,30.07,SSE,166,0.0,0.0,94,0.00,,,0.00,WeatherDisplay:10.37,2013-03-06 07:15:00,
2013-03-06 02:20:00,33.3,32.0,30.07,ENE,72,0.2,1.1,95,0.00,,,0.00,WeatherDisplay:10.37,2013-03-06 07:20:00,
2013-03-06 02:25:00,33.5,32.2,30.06,ENE,61,0.5,3.5,95,0.00,,,0.00,WeatherDisplay:10.37,2013-03-06 07:25:00,
2013-03-06 02:30:00,33.6,32.3,30.06,NNW,339,0.3,3.5,95,0.00,,,0.00,WeatherDisplay:10.37,2013-03-06 07:30:00,
2013-03-06 02:35:00,33.7,32.2,30.06,NE,34,0.0,0.0,94,0.00,,,0.00,WeatherDisplay:10.37,2013-03-06 07:35:00,
2013-03-06 02:40:00,33.7,32.2,30.07,NE,34,0.0,0.0,94,0.00,,,0.00,WeatherDisplay:10.37,2013-03-06 07:40:00,
2013-03-06 02:45:00,33.7,32.2,30.07,NE,34,0.0,0.0,94,0.00,,,0.00,WeatherDisplay:10.37,2013-03-06 07:45:00,
2013-03-06 02:50:00,33.7,32.2,30.07,NE,34,0.0,0.0,94,0.00,,,0.00,WeatherDisplay:10.37,2013-03-06 07:50:00,
2013-03-06 02:55:00,33.7,32.2,30.07,NE,34,0.0,0.0,94,0.00,,,0.00,WeatherDisplay:10.37,2013-03-06 07:55:00,
2013-03-06 03:00:00,33.7,32.2,30.06,NE,34,0.0,0.0,94,0.00,,,0.00,WeatherDisplay:10.37,2013-03-06 08:00:00,
2013-03-06 03:05:00,33.6,32.3,30.06,NE,34,0.0,0.0,95,0.00,,,0.00,WeatherDisplay:10.37,2013-03-06 08:05:00,
2013-03-06 03:10:00,33.6,32.3,30.07,NE,34,0.2,1.1,95,0.00,,,0.00,WeatherDisplay:10.37,2013-03-06 08:10:00,
2013-03-06 03:15:00,33.6,32.1,30.07,NE,34,0.2,1.1,94,0.00,,,0.00,WeatherDisplay:10.37,2013-03-06 08:15:00,
2013-03-06 03:20:00,33.7,32.4,30.07,NE,45,1.2,2.3,95,0.00,,,0.00,WeatherDisplay:10.37,2013-03-06 08:20:00,
2013-03-06 03:25:00,33.8,32.3,30.07,NE,45,0.4,1.1,94,0.00,,,0.00,WeatherDisplay:10.37,2013-03-06 08:25:00,
2013-03-06 03:30:00,33.9,32.4,30.07,NNE,26,0.0,0.0,94,0.00,,,0.00,WeatherDisplay:10.37,2013-03-06 08:30:00,
2013-03-06 03:35:00,33.9,32.4,30.07,NNE,17,1.1,3.5,94,0.00,,,0.00,WeatherDisplay:10.37,2013-03-06 08:35:00,
2013-03-06 03:40:00,33.9,32.4,30.07,NE,52,0.4,2.3,94,0.00,,,0.00,WeatherDisplay:10.37,2013-03-06 08:40:00,
2013-03-06 03:45:00,33.9,32.4,30.07,NE,52,0.1,1.1,94,0.00,,,0.00,WeatherDisplay:10.37,2013-03-06 08:45:00,
2013-03-06 03:50:00,33.8,32.3,30.08,NE,52,0.0,0.0,94,0.00,,,0.00,WeatherDisplay:10.37,2013-03-06 08:50:00,
2013-03-06 03:56:00,33.8,32.3,30.08,NE,52,0.0,1.1,94,0.00,,,0.00,WeatherDisplay:10.37,2013-03-06 08:56:00,
2013-03-06 04:01:00,33.7,32.2,30.08,NE,52,0.0,1.1,94,0.00,,,0.00,WeatherDisplay:10.37,2013-03-06 09:01:00,
2013-03-06 04:06:00,33.7,32.2,30.08,WSW,250,0.1,1.1,94,0.00,,,0.00,WeatherDisplay:10.37,2013-03-06 09:06:00,
2013-03-06 04:11:00,33.6,32.1,30.08,NW,313,0.0,0.0,94,0.00,,,0.00,WeatherDisplay:10.37,2013-03-06 09:11:00,
2013-03-06 04:16:00,33.5,32.0,30.08,NW,313,0.0,0.0,94,0.00,,,0.00,WeatherDisplay:10.37,2013-03-06 09:16:00,
2013-03-06 04:21:00,33.5,32.0,30.08,NW,313,0.0,0.0,94,0.00,,,0.00,WeatherDisplay:10.37,2013-03-06 09:21:00,
2013-03-06 04:26:00,33.5,32.0,30.08,NW,313,0.0,0.0,94,0.00,,,0.00,WeatherDisplay:10.37,2013-03-06 09:26:00,
2013-03-06 04:31:00,33.4,31.9,30.09,NW,313,0.0,0.0,94,0.00,,,0.00,WeatherDisplay:10.37,2013-03-06 09:31:00,
2013-03-06 04:36:00,33.4,31.9,30.09,NW,313,0.0,0.0,94,0.00,,,0.00,WeatherDisplay:10.37,2013-03-06 09:36:00,
2013-03-06 04:41:00,33.4,31.9,30.09,NW,313,0.0,0.0,94,0.00,,,0.00,WeatherDisplay:10.37,2013-03-06 09:41:00,
2013-03-06 04:46:00,33.4,32.1,30.09,NW,313,0.0,0.0,95,0.00,,,0.00,WeatherDisplay:10.37,2013-03-06 09:46:00,
2013-03-06 04:51:00,33.3,32.0,30.09,NNE,22,0.1,1.1,95,0.00,,,0.00,WeatherDisplay:10.37,2013-03-06 09:51:00,
2013-03-06 04:56:00,33.3,32.0,30.09,NNE,22,0.0,0.0,95,0.00,,,0.00,WeatherDisplay:10.37,2013-03-06 09:56:00,
2013-03-06 05:01:00,33.3,32.0,30.09,NNE,22,0.0,1.1,95,0.00,,,0.00,WeatherDisplay:10.37,2013-03-06 10:01:00,
2013-03-06 05:06:00,33.2,31.9,30.09,NNE,22,0.0,0.0,95,0.00,,,0.00,WeatherDisplay:10.37,2013-03-06 10:06:00,
2013-03-06 05:11:00,33.2,31.9,30.09,NNE,22,0.0,0.0,95,0.00,,,0.00,WeatherDisplay:10.37,2013-03-06 10:11:00,
2013-03-06 05:16:00,33.1,31.8,30.09,NNE,22,0.0,0.0,95,0.00,,,0.00,WeatherDisplay:10.37,2013-03-06 10:16:00,
2013-03-06 05:21:00,33.1,31.8,30.09,NNE,22,0.0,0.0,95,0.00,,,0.00,WeatherDisplay:10.37,2013-03-06 10:21:00,
2013-03-06 05:26:00,33.1,31.8,30.09,NNE,22,0.7,2.3,95,0.00,,,0.00,WeatherDisplay:10.37,2013-03-06 10:26:00,
2013-03-06 05:31:00,33.0,32.0,30.09,NNE,22,0.5,2.3,96,0.00,,,0.00,WeatherDisplay:10.37,2013-03-06 10:31:00,
2013-03-06 05:36:00,33.0,32.0,30.08,NNE,22,0.0,0.0,96,0.00,,,0.00,WeatherDisplay:10.37,2013-03-06 10:36:00,
2013-03-06 05:41:00,33.0,32.0,30.08,NNE,22,0.0,0.0,96,0.00,,,0.00,WeatherDisplay:10.37,2013-03-06 10:41:00,
2013-03-06 05:46:00,33.0,32.0,30.08,NNE,22,0.0,0.0,96,0.00,,,0.00,WeatherDisplay:10.37,2013-03-06 10:46:00,
2013-03-06 05:51:00,32.9,31.9,30.09,NNE,22,0.0,0.0,96,0.00,,,0.00,WeatherDisplay:10.37,2013-03-06 10:51:00,
2013-03-06 05:56:00,32.9,31.9,30.09,ENE,71,0.2,1.1,96,0.00,,,0.00,WeatherDisplay:10.37,2013-03-06 10:56:00,
2013-03-06 06:01:00,32.9,31.9,30.09,ENE,71,0.0,0.0,96,0.00,,,0.00,WeatherDisplay:10.37,2013-03-06 11:01:00,
2013-03-06 06:06:00,32.9,31.9,30.09,ENE,71,0.0,0.0,96,0.00,,,0.00,WeatherDisplay:10.37,2013-03-06 11:06:00,
2013-03-06 06:11:00,32.9,31.9,30.09,ENE,71,0.0,0.0,96,0.00,,,0.00,WeatherDisplay:10.37,2013-03-06 11:11:00,
2013-03-06 06:16:00,32.9,31.9,30.09,ENE,71,0.0,0.0,96,0.00,,,0.00,WeatherDisplay:10.37,2013-03-06 11:16:00,
2013-03-06 06:21:00,32.9,31.9,30.09,ENE,71,0.0,0.0,96,0.00,,,0.00,WeatherDisplay:10.37,2013-03-06 11:21:00,
2013-03-06 06:26:00,32.9,31.9,30.09,NNE,13,0.5,3.0,96,0.00,,,0.00,WeatherDisplay:10.37,2013-03-06 11:26:00,
2013-03-06 06:31:00,32.9,31.9,30.10,NE,45,0.1,0.0,96,0.00,,,0.00,WeatherDisplay:10.37,2013-03-06 11:31:00,
2013-03-06 06:36:00,32.9,31.9,30.10,East,89,0.4,2.0,96,0.01,RA,,0.01,WeatherDisplay:10.37,2013-03-06 11:36:00,
2013-03-06 06:41:00,33.0,32.0,30.10,NNE,28,0.0,0.0,96,0.01,RA,,0.01,WeatherDisplay:10.37,2013-03-06 11:41:00,
2013-03-06 06:46:00,33.0,32.0,30.10,NNE,14,0.7,3.5,96,0.01,,,0.01,WeatherDisplay:10.37,2013-03-06 11:46:00,
2013-03-06 06:51:00,33.1,32.1,30.10,NNE,29,0.0,0.0,96,0.01,,,0.01,WeatherDisplay:10.37,2013-03-06 11:51:00,
2013-03-06 06:56:00,33.1,32.1,30.10,NNE,29,0.0,0.0,96,0.01,,,0.01,WeatherDisplay:10.37,2013-03-06 11:56:00,
2013-03-06 07:01:00,33.2,32.2,30.10,NE,38,0.0,0.0,96,0.01,,,0.01,WeatherDisplay:10.37,2013-03-06 12:01:00,
2013-03-06 07:06:00,33.2,32.2,30.10,North,11,0.0,1.1,96,0.01,,,0.01,WeatherDisplay:10.37,2013-03-06 12:06:00,
2013-03-06 07:11:00,33.2,32.2,30.11,NNE,28,0.2,3.0,96,0.01,,,0.01,WeatherDisplay:10.37,2013-03-06 12:11:00,
2013-03-06 07:16:00,33.2,32.2,30.11,NNE,25,0.1,0.0,96,0.01,,,0.01,WeatherDisplay:10.37,2013-03-06 12:16:00,
2013-03-06 07:21:00,33.3,32.3,30.11,ENE,63,0.4,2.3,96,0.01,,,0.01,WeatherDisplay:10.37,2013-03-06 12:21:00,
2013-03-06 07:26:00,33.3,32.3,30.11,North,360,3.0,3.5,96,0.01,,,0.01,WeatherDisplay:10.37,2013-03-06 12:26:00,
2013-03-06 07:31:00,33.4,32.4,30.11,NNE,28,3.1,3.5,96,0.01,,,0.01,WeatherDisplay:10.37,2013-03-06 12:31:00,
2013-03-06 07:36:00,33.5,32.5,30.11,NE,40,1.0,3.5,96,0.00,,,0.01,WeatherDisplay:10.37,2013-03-06 12:36:00,
2013-03-06 07:41:00,33.5,32.2,30.11,NNE,33,1.1,3.5,95,0.00,,,0.01,WeatherDisplay:10.37,2013-03-06 12:41:00,
2013-03-06 07:46:00,33.5,32.2,30.12,North,360,1.8,3.5,95,0.00,,,0.01,WeatherDisplay:10.37,2013-03-06 12:46:00,
2013-03-06 07:51:00,33.6,32.3,30.12,North,360,0.5,3.5,95,0.00,,,0.01,WeatherDisplay:10.37,2013-03-06 12:51:00,
2013-03-06 07:56:00,33.6,32.3,30.12,ENE,63,0.7,3.5,95,0.00,,,0.01,WeatherDisplay:10.37,2013-03-06 12:56:00,
2013-03-06 08:01:00,33.6,32.1,30.13,NE,35,0.9,2.3,94,0.00,,,0.01,WeatherDisplay:10.37,2013-03-06 13:01:00,
2013-03-06 08:06:00,33.7,32.2,30.13,NE,52,0.1,3.5,94,0.00,,,0.01,WeatherDisplay:10.37,2013-03-06 13:06:00,
2013-03-06 08:11:00,33.7,32.2,30.13,West,263,2.0,2.3,94,0.00,,,0.01,WeatherDisplay:10.37,2013-03-06 13:11:00,
2013-03-06 08:16:00,33.8,32.0,30.13,NNE,18,2.5,3.5,93,0.00,,,0.01,WeatherDisplay:10.37,2013-03-06 13:16:00,
2013-03-06 08:21:00,33.9,32.1,30.14,NNW,334,2.2,3.5,93,0.00,,,0.01,WeatherDisplay:10.37,2013-03-06 13:21:00,
2013-03-06 08:26:00,34.0,31.6,30.14,East,82,3.0,9.2,91,0.00,,,0.01,WeatherDisplay:10.37,2013-03-06 13:26:00,
2013-03-06 08:31:00,34.1,31.7,30.14,ENE,72,0.5,3.5,91,0.00,,,0.01,WeatherDisplay:10.37,2013-03-06 13:31:00,
2013-03-06 08:36:00,34.3,31.7,30.14,NNE,13,1.3,3.5,90,0.00,,,0.01,WeatherDisplay:10.37,2013-03-06 13:36:00,
2013-03-06 08:41:00,34.5,31.6,30.14,NNE,28,1.7,3.5,89,0.00,,,0.01,WeatherDisplay:10.37,2013-03-06 13:41:00,
2013-03-06 08:46:00,34.6,31.7,30.14,NNE,22,1.5,4.6,89,0.00,,,0.01,WeatherDisplay:10.37,2013-03-06 13:46:00,
2013-03-06 08:51:00,34.7,31.8,30.14,NNW,347,2.3,6.0,89,0.00,,,0.01,WeatherDisplay:10.37,2013-03-06 13:51:00,
2013-03-06 08:56:00,34.7,31.2,30.13,East,92,1.8,3.5,87,0.00,,,0.01,WeatherDisplay:10.37,2013-03-06 13:56:00,
2013-03-06 09:01:00,34.9,31.4,30.13,NE,45,2.8,6.9,87,0.00,CLR,,0.01,WeatherDisplay:10.37,2013-03-06 14:01:00,
2013-03-06 09:06:00,35.1,31.3,30.13,NNE,26,1.5,4.6,86,0.00,CLR,,0.01,WeatherDisplay:10.37,2013-03-06 14:06:00,
2013-03-06 09:11:00,35.3,31.5,30.13,NNE,24,3.3,3.3,86,0.00,CLR,,0.01,WeatherDisplay:10.37,2013-03-06 14:11:00,
2013-03-06 09:16:00,35.5,31.1,30.13,NNE,29,1.3,3.5,84,0.00,CLR,,0.01,WeatherDisplay:10.37,2013-03-06 14:16:00,
2013-03-06 09:21:00,35.6,30.9,30.13,NE,36,3.4,6.0,83,0.00,CLR,,0.01,WeatherDisplay:10.37,2013-03-06 14:21:00,
2013-03-06 09:26:00,35.6,30.6,30.13,ENE,61,4.9,9.2,82,0.00,CLR,,0.01,WeatherDisplay:10.37,2013-03-06 14:26:00,
2013-03-06 09:31:00,35.7,30.4,30.13,NE,39,2.0,6.9,81,0.00,CLR,,0.01,WeatherDisplay:10.37,2013-03-06 14:31:00,
2013-03-06 09:36:00,35.7,30.1,30.13,NNE,32,3.1,6.9,80,0.00,CLR,,0.01,WeatherDisplay:10.37,2013-03-06 14:36:00,
2013-03-06 09:41:00,35.9,30.3,30.12,ENE,60,1.6,6.9,80,0.00,CLR,,0.01,WeatherDisplay:10.37,2013-03-06 14:41:00,
2013-03-06 09:46:00,35.9,30.3,30.12,North,350,0.7,3.5,80,0.00,CLR,,0.01,WeatherDisplay:10.37,2013-03-06 14:46:00,
2013-03-06 09:51:00,36.0,30.4,30.12,ENE,67,1.4,3.5,80,0.00,CLR,,0.01,WeatherDisplay:10.37,2013-03-06 14:51:00,
2013-03-06 09:56:00,36.2,30.6,30.12,NNE,28,4.5,6.9,80,0.00,CLR,,0.01,WeatherDisplay:10.37,2013-03-06 14:56:00,
2013-03-06 10:01:00,36.5,30.6,30.12,North,5,2.3,4.0,79,0.00,,,0.01,WeatherDisplay:10.37,2013-03-06 15:01:00,
2013-03-06 10:06:00,36.8,30.6,30.12,NNE,13,2.6,4.6,78,0.00,,,0.01,WeatherDisplay:10.37,2013-03-06 15:06:00,
2013-03-06 10:11:00,37.0,30.5,30.13,NNE,12,1.2,3.5,77,0.00,,,0.01,WeatherDisplay:10.37,2013-03-06 15:11:00,
2013-03-06 10:16:00,37.0,29.8,30.13,NE,49,5.1,10.4,75,0.00,,,0.01,WeatherDisplay:10.37,2013-03-06 15:16:00,
2013-03-06 10:21:00,37.0,30.1,30.13,North,5,2.6,4.6,76,0.00,,,0.01,WeatherDisplay:10.37,2013-03-06 15:21:00,
2013-03-06 10:26:00,37.2,30.0,30.12,West,275,2.9,6.9,75,0.00,,,0.01,WeatherDisplay:10.37,2013-03-06 15:26:00,
2013-03-06 10:31:00,37.4,29.5,30.13,NE,42,3.4,5.8,73,0.00,,,0.01,WeatherDisplay:10.37,2013-03-06 15:31:00,
2013-03-06 10:36:00,37.6,29.7,30.13,NE,53,2.1,4.6,73,0.00,,,0.01,WeatherDisplay:10.37,2013-03-06 15:36:00,
2013-03-06 10:41:00,37.6,29.4,30.13,NE,49,3.1,9.2,72,0.00,,,0.01,WeatherDisplay:10.37,2013-03-06 15:41:00,
2013-03-06 10:46:00,37.7,29.5,30.14,ENE,68,1.0,3.5,72,0.00,,,0.01,WeatherDisplay:10.37,2013-03-06 15:46:00,
2013-03-06 10:51:00,37.6,29.0,30.13,NNE,18,4.3,5.8,71,0.00,,,0.01,WeatherDisplay:10.37,2013-03-06 15:51:00,
2013-03-06 10:56:00,37.5,28.9,30.13,ENE,57,1.6,3.5,71,0.00,,,0.01,WeatherDisplay:10.37,2013-03-06 15:56:00,
2013-03-06 11:01:00,37.6,28.7,30.13,NNE,26,2.7,3.5,70,0.00,,,0.01,WeatherDisplay:10.37,2013-03-06 16:01:00,
2013-03-06 11:06:00,37.6,28.3,30.13,NNW,346,2.2,5.0,69,0.00,,,0.01,WeatherDisplay:10.37,2013-03-06 16:06:00,
2013-03-06 11:11:00,37.6,28.7,30.13,NE,38,2.9,4.6,70,0.00,,,0.01,WeatherDisplay:10.37,2013-03-06 16:11:00,
2013-03-06 11:16:00,37.4,28.2,30.13,NNE,24,3.3,7.0,69,0.00,,,0.01,WeatherDisplay:10.37,2013-03-06 16:16:00,
2013-03-06 11:21:00,37.1,28.2,30.13,NNE,19,3.7,6.9,70,0.00,,,0.01,WeatherDisplay:10.37,2013-03-06 16:21:00,
2013-03-06 11:26:00,37.0,28.5,30.13,NW,321,2.0,5.0,71,0.00,,,0.01,WeatherDisplay:10.37,2013-03-06 16:26:00,
2013-03-06 11:31:00,36.9,28.4,30.13,NNE,31,2.2,3.5,71,0.00,,,0.01,WeatherDisplay:10.37,2013-03-06 16:31:00,
2013-03-06 11:36:00,36.8,29.0,30.13,NNE,17,1.7,3.5,73,0.00,,,0.01,WeatherDisplay:10.37,2013-03-06 16:36:00,
2013-03-06 11:41:00,36.8,29.0,30.12,North,360,1.8,3.5,73,0.00,,,0.01,WeatherDisplay:10.37,2013-03-06 16:41:00,
2013-03-06 11:46:00,36.8,28.6,30.12,ENE,75,3.2,6.9,72,0.00,,,0.01,WeatherDisplay:10.37,2013-03-06 16:46:00,
2013-03-06 11:51:00,36.8,28.6,30.12,ENE,58,1.3,3.5,72,0.00,,,0.01,WeatherDisplay:10.37,2013-03-06 16:51:00,
2013-03-06 11:56:00,36.7,28.5,30.12,ENE,59,1.6,3.5,72,0.00,,,0.01,WeatherDisplay:10.37,2013-03-06 16:56:00,
2013-03-06 12:01:00,36.8,28.3,30.12,ENE,61,2.3,6.9,71,0.00,,,0.01,WeatherDisplay:10.37,2013-03-06 17:01:00,
2013-03-06 12:06:00,37.0,28.5,30.11,North,5,2.6,4.6,71,0.00,,,0.01,WeatherDisplay:10.37,2013-03-06 17:06:00,
2013-03-06 12:11:00,37.2,29.0,30.11,NE,42,1.4,3.5,72,0.00,,,0.01,WeatherDisplay:10.37,2013-03-06 17:11:00,
2013-03-06 12:16:00,37.0,28.1,30.11,ENE,73,2.6,5.8,70,0.00,,,0.01,WeatherDisplay:10.37,2013-03-06 17:16:00,
2013-03-06 12:21:00,36.8,28.3,30.11,NE,53,2.9,4.6,71,0.00,,,0.01,WeatherDisplay:10.37,2013-03-06 17:21:00,
2013-03-06 12:26:00,36.8,29.3,30.11,NE,35,2.0,5.0,74,0.00,,,0.01,WeatherDisplay:10.37,2013-03-06 17:26:00,
2013-03-06 12:31:00,36.8,28.6,30.11,NE,51,2.0,3.5,72,0.00,,,0.01,WeatherDisplay:10.37,2013-03-06 17:31:00,
2013-03-06 12:37:00,36.8,29.3,30.11,NE,37,1.7,3.5,74,0.00,,,0.01,WeatherDisplay:10.37,2013-03-06 17:37:00,
2013-03-06 12:42:00,36.7,29.2,30.11,NNW,339,2.7,4.6,74,0.00,,,0.01,WeatherDisplay:10.37,2013-03-06 17:42:00,
2013-03-06 12:47:00,36.6,29.1,30.11,NNE,24,2.6,3.5,74,0.00,,,0.01,WeatherDisplay:10.37,2013-03-06 17:47:00,
2013-03-06 12:52:00,36.5,29.3,30.12,NNE,30,3.0,5.8,75,0.00,,,0.01,WeatherDisplay:10.37,2013-03-06 17:52:00,
2013-03-06 12:57:00,36.3,29.5,30.11,ENE,70,2.2,3.5,76,0.00,,,0.01,WeatherDisplay:10.37,2013-03-06 17:57:00,
2013-03-06 13:02:00,36.4,29.9,30.11,ENE,71,2.4,3.5,77,0.00,,,0.01,WeatherDisplay:10.37,2013-03-06 18:02:00,
2013-03-06 13:07:00,36.6,29.7,30.11,NNE,33,2.3,4.6,76,0.00,,,0.01,WeatherDisplay:10.37,2013-03-06 18:07:00,
2013-03-06 13:12:00,36.9,29.7,30.11,NE,52,0.7,2.3,75,0.00,,,0.01,WeatherDisplay:10.37,2013-03-06 18:12:00,
2013-03-06 13:17:00,37.0,29.8,30.11,NE,45,2.6,5.8,75,0.00,,,0.01,WeatherDisplay:10.37,2013-03-06 18:17:00,
2013-03-06 13:22:00,36.6,30.4,30.11,East,79,1.5,3.5,78,0.00,,,0.01,WeatherDisplay:10.37,2013-03-06 18:22:00,
2013-03-06 13:27:00,36.3,31.0,30.11,NE,45,3.3,5.0,81,0.00,,,0.01,WeatherDisplay:10.37,2013-03-06 18:27:00,
2013-03-06 13:32:00,36.1,31.1,30.11,NE,50,0.2,2.3,82,0.00,,,0.01,WeatherDisplay:10.37,2013-03-06 18:32:00,
2013-03-06 13:37:00,36.2,30.6,30.11,NNE,22,1.0,2.3,80,0.00,,,0.01,WeatherDisplay:10.37,2013-03-06 18:37:00,
2013-03-06 13:42:00,36.4,30.8,30.11,North,5,1.4,3.0,80,0.00,,,0.01,WeatherDisplay:10.37,2013-03-06 18:42:00,
2013-03-06 13:47:00,36.4,30.8,30.12,NE,37,2.1,3.5,80,0.00,,,0.01,WeatherDisplay:10.37,2013-03-06 18:47:00,
2013-03-06 13:52:00,36.0,30.7,30.12,NE,34,3.1,5.0,81,0.00,,,0.01,WeatherDisplay:10.37,2013-03-06 18:52:00,
2013-03-06 13:57:00,35.7,30.7,30.12,NE,36,1.5,5.0,82,0.01,RA,,0.02,WeatherDisplay:10.37,2013-03-06 18:57:00,
2013-03-06 14:02:00,35.5,30.8,30.12,North,10,2.9,3.5,83,0.01,RA,,0.02,WeatherDisplay:10.37,2013-03-06 19:02:00,
2013-03-06 14:07:00,35.5,30.8,30.12,North,5,1.3,3.5,83,0.01,,,0.02,WeatherDisplay:10.37,2013-03-06 19:07:00,
2013-03-06 14:12:00,35.5,30.8,30.12,NE,53,1.3,2.3,83,0.01,,,0.02,WeatherDisplay:10.37,2013-03-06 19:12:00,
2013-03-06 14:17:00,35.5,30.5,30.12,North,355,2.8,4.0,82,0.01,,,0.02,WeatherDisplay:10.37,2013-03-06 19:17:00,
2013-03-06 14:22:00,35.4,31.0,30.12,NNE,20,1.8,3.5,84,0.01,,,0.02,WeatherDisplay:10.37,2013-03-06 19:22:00,
2013-03-06 14:27:00,35.2,31.4,30.12,NNE,28,2.8,5.0,86,0.01,,,0.02,WeatherDisplay:10.37,2013-03-06 19:27:00,
2013-03-06 14:32:00,35.0,31.5,30.12,NE,48,1.5,4.0,87,0.01,,,0.02,WeatherDisplay:10.37,2013-03-06 19:32:00,
2013-03-06 14:37:00,34.9,31.4,30.12,ENE,57,2.6,4.6,87,0.01,,,0.02,WeatherDisplay:10.37,2013-03-06 19:37:00,
2013-03-06 14:42:00,34.8,31.3,30.12,NE,51,1.7,3.5,87,0.01,,,0.02,WeatherDisplay:10.37,2013-03-06 19:42:00,
2013-03-06 14:47:00,34.8,31.3,30.12,NE,47,2.7,3.5,87,0.01,,,0.02,WeatherDisplay:10.37,2013-03-06 19:47:00,
2013-03-06 14:52:00,34.9,31.1,30.12,NNE,28,2.4,4.6,86,0.01,,,0.02,WeatherDisplay:10.37,2013-03-06 19:52:00,
2013-03-06 14:57:00,35.0,30.9,30.12,NNE,15,4.3,9.2,85,0.00,,,0.02,WeatherDisplay:10.37,2013-03-06 19:57:00,
2013-03-06 15:02:00,35.1,30.8,30.12,North,5,2.0,6.0,84,0.00,,,0.02,WeatherDisplay:10.37,2013-03-06 20:02:00,
2013-03-06 15:07:00,35.2,30.9,30.12,East,81,2.0,5.0,84,0.00,,,0.02,WeatherDisplay:10.37,2013-03-06 20:07:00,
2013-03-06 15:12:00,35.4,30.8,30.12,NE,46,2.4,4.0,83,0.00,,,0.02,WeatherDisplay:10.37,2013-03-06 20:12:00,
2013-03-06 15:17:00,35.6,30.6,30.12,ENE,57,2.3,4.6,82,0.00,,,0.02,WeatherDisplay:10.37,2013-03-06 20:17:00,
2013-03-06 15:22:00,35.8,30.2,30.12,North,355,4.0,5.0,80,0.00,,,0.02,WeatherDisplay:10.37,2013-03-06 20:22:00,
2013-03-06 15:27:00,35.9,30.3,30.12,NE,40,0.5,2.3,80,0.00,,,0.02,WeatherDisplay:10.37,2013-03-06 20:27:00,
2013-03-06 15:32:00,35.8,30.2,30.12,ENE,65,1.5,3.5,80,0.00,,,0.02,WeatherDisplay:10.37,2013-03-06 20:32:00,
2013-03-06 15:37:00,35.6,30.3,30.12,NE,42,3.3,3.5,81,0.00,,,0.02,WeatherDisplay:10.37,2013-03-06 20:37:00,
2013-03-06 15:42:00,35.5,29.9,30.12,ENE,67,3.4,3.5,80,0.00,,,0.02,WeatherDisplay:10.37,2013-03-06 20:42:00,
2013-03-06 15:47:00,35.4,29.5,30.12,NNE,18,2.8,5.8,79,0.00,,,0.02,WeatherDisplay:10.37,2013-03-06 20:47:00,
2013-03-06 15:52:00,35.5,29.3,30.12,North,11,1.7,3.5,78,0.00,,,0.02,WeatherDisplay:10.37,2013-03-06 20:52:00,
2013-03-06 15:57:00,35.6,29.4,30.12,West,261,1.3,8.0,78,0.00,,,0.02,WeatherDisplay:10.37,2013-03-06 20:57:00,
2013-03-06 16:02:00,35.7,28.2,30.12,NNE,15,3.2,6.9,74,0.00,,,0.02,WeatherDisplay:10.37,2013-03-06 21:02:00,
2013-03-06 16:07:00,35.8,28.0,30.12,NNE,22,0.9,2.3,73,0.00,,,0.02,WeatherDisplay:10.37,2013-03-06 21:07:00,
2013-03-06 16:12:00,35.8,28.0,30.12,NNE,23,2.2,4.6,73,0.00,,,0.02,WeatherDisplay:10.37,2013-03-06 21:12:00,
2013-03-06 16:17:00,35.8,27.7,30.12,NW,323,2.4,5.0,72,0.00,,,0.02,WeatherDisplay:10.37,2013-03-06 21:17:00,
2013-03-06 16:22:00,35.7,27.6,30.12,NNE,33,4.2,6.9,72,0.00,,,0.02,WeatherDisplay:10.37,2013-03-06 21:22:00,
2013-03-06 16:27:00,35.7,27.6,30.12,NNE,16,3.8,5.8,72,0.00,,,0.02,WeatherDisplay:10.37,2013-03-06 21:27:00,
2013-03-06 16:32:00,35.7,27.2,30.12,ENE,59,3.3,6.9,71,0.00,,,0.02,WeatherDisplay:10.37,2013-03-06 21:32:00,
2013-03-06 16:37:00,35.6,27.1,30.12,NNW,328,2.4,5.0,71,0.00,,,0.02,WeatherDisplay:10.37,2013-03-06 21:37:00,
2013-03-06 16:42:00,35.6,27.1,30.13,North,5,3.0,6.0,71,0.00,,,0.02,WeatherDisplay:10.37,2013-03-06 21:42:00,
2013-03-06 16:48:00,35.7,26.5,30.13,East,92,3.6,5.8,69,0.00,,,0.02,WeatherDisplay:10.37,2013-03-06 21:48:00,
2013-03-06 16:53:00,35.7,26.9,30.13,NE,36,1.9,4.6,70,0.00,,,0.02,WeatherDisplay:10.37,2013-03-06 21:53:00,
2013-03-06 16:58:00,35.6,27.5,30.14,ENE,66,2.4,4.0,72,0.00,,,0.02,WeatherDisplay:10.37,2013-03-06 21:58:00,
2013-03-06 17:03:00,35.5,27.0,30.14,ENE,67,2.5,3.5,71,0.00,,,0.02,WeatherDisplay:10.37,2013-03-06 22:03:00,
2013-03-06 17:08:00,35.5,27.4,30.14,NNE,23,1.1,3.5,72,0.00,,,0.02,WeatherDisplay:10.37,2013-03-06 22:08:00,
2013-03-06 17:13:00,35.4,26.9,30.15,NE,42,4.1,6.0,71,0.00,,,0.02,WeatherDisplay:10.37,2013-03-06 22:13:00,
2013-03-06 17:18:00,35.3,27.5,30.14,NE,43,3.1,4.6,73,0.00,,,0.02,WeatherDisplay:10.37,2013-03-06 22:18:00,
2013-03-06 17:23:00,35.2,27.4,30.15,North,350,2.2,4.6,73,0.00,,,0.02,WeatherDisplay:10.37,2013-03-06 22:23:00,
2013-03-06 17:28:00,35.1,27.0,30.14,NNE,28,2.9,4.6,72,0.00,,,0.02,WeatherDisplay:10.37,2013-03-06 22:28:00,
2013-03-06 17:33:00,35.0,27.2,30.14,NE,45,3.6,5.0,73,0.00,,,0.02,WeatherDisplay:10.37,2013-03-06 22:33:00,
2013-03-06 17:38:00,34.9,27.1,30.15,NNE,26,2.0,3.5,73,0.00,,,0.02,WeatherDisplay:10.37,2013-03-06 22:38:00,
2013-03-06 17:43:00,34.8,27.7,30.14,NE,53,1.4,3.5,75,0.00,,,0.02,WeatherDisplay:10.37,2013-03-06 22:43:00,
2013-03-06 17:48:00,34.7,26.9,30.15,NNE,25,3.3,6.9,73,0.00,,,0.02,WeatherDisplay:10.37,2013-03-06 22:48:00,
2013-03-06 17:53:00,34.6,26.8,30.15,NNE,23,3.0,6.0,73,0.00,,,0.02,WeatherDisplay:10.37,2013-03-06 22:53:00,
2013-03-06 17:58:00,34.4,27.0,30.15,North,9,4.4,8.1,74,0.00,,,0.02,WeatherDisplay:10.37,2013-03-06 22:58:00,
2013-03-06 18:03:00,34.3,27.2,30.16,SW,230,0.8,3.5,75,0.00,,,0.02,WeatherDisplay:10.37,2013-03-06 23:03:00,
2013-03-06 18:08:00,34.2,27.4,30.16,NE,46,2.9,5.8,76,0.00,,,0.02,WeatherDisplay:10.37,2013-03-06 23:08:00,
2013-03-06 18:13:00,34.2,28.1,30.16,NE,49,0.1,1.1,78,0.00,,,0.02,WeatherDisplay:10.37,2013-03-06 23:13:00,
2013-03-06 18:18:00,34.0,27.5,30.17,NNE,30,1.2,3.5,77,0.00,,,0.02,WeatherDisplay:10.37,2013-03-06 23:18:00,
2013-03-06 18:23:00,34.0,27.5,30.17,NE,44,1.4,3.5,77,0.00,,,0.02,WeatherDisplay:10.37,2013-03-06 23:23:00,
2013-03-06 18:28:00,33.9,27.4,30.17,North,355,1.5,3.5,77,0.00,,,0.02,WeatherDisplay:10.37,2013-03-06 23:28:00,
2013-03-06 18:33:00,33.9,27.4,30.17,NE,40,1.2,3.5,77,0.00,,,0.02,WeatherDisplay:10.37,2013-03-06 23:33:00,
2013-03-06 18:38:00,33.9,27.4,30.17,NNE,15,2.1,3.5,77,0.00,,,0.02,WeatherDisplay:10.37,2013-03-06 23:38:00,
2013-03-06 18:43:00,33.9,27.4,30.17,NE,44,2.0,3.5,77,0.00,,,0.02,WeatherDisplay:10.37,2013-03-06 23:43:00,
2013-03-06 18:48:00,33.9,28.1,30.17,NE,45,0.3,1.1,79,0.00,,,0.02,WeatherDisplay:10.37,2013-03-06 23:48:00,
2013-03-06 18:53:00,33.8,27.4,30.17,NE,44,2.2,3.5,77,0.00,,,0.02,WeatherDisplay:10.37,2013-03-06 23:53:00,
2013-03-06 18:58:00,33.8,27.4,30.17,NE,44,1.0,2.3,77,0.00,,,0.02,WeatherDisplay:10.37,2013-03-06 23:58:00,
2013-03-06 19:03:00,33.8,27.4,30.17,NE,42,1.2,3.5,77,0.00,CLR,,0.02,WeatherDisplay:10.37,2013-03-07 00:03:00,
2013-03-06 19:08:00,33.8,27.0,30.17,ENE,64,2.4,3.5,76,0.00,CLR,,0.02,WeatherDisplay:10.37,2013-03-07 00:08:00,
2013-03-06 19:13:00,33.8,27.4,30.17,NE,42,2.8,5.8,77,0.00,CLR,,0.02,WeatherDisplay:10.37,2013-03-07 00:13:00,
2013-03-06 19:18:00,33.8,27.4,30.16,NE,49,0.3,2.3,77,0.00,CLR,,0.02,WeatherDisplay:10.37,2013-03-07 00:18:00,
2013-03-06 19:23:00,33.7,27.3,30.16,NNE,28,2.6,3.5,77,0.00,CLR,,0.02,WeatherDisplay:10.37,2013-03-07 00:23:00,
2013-03-06 19:28:00,33.7,27.3,30.16,North,360,1.3,2.3,77,0.00,CLR,,0.02,WeatherDisplay:10.37,2013-03-07 00:28:00,
2013-03-06 19:33:00,33.6,27.5,30.16,North,355,1.8,2.3,78,0.00,CLR,,0.02,WeatherDisplay:10.37,2013-03-07 00:33:00,
2013-03-06 19:38:00,33.5,27.7,30.15,ENE,75,0.8,3.5,79,0.00,CLR,,0.02,WeatherDisplay:10.37,2013-03-07 00:38:00,
2013-03-06 19:43:00,33.5,27.7,30.16,NNE,20,2.6,3.5,79,0.00,CLR,,0.02,WeatherDisplay:10.37,2013-03-07 00:43:00,
2013-03-06 19:48:00,33.5,27.4,30.16,ENE,71,0.8,3.5,78,0.00,CLR,,0.02,WeatherDisplay:10.37,2013-03-07 00:48:00,
2013-03-06 19:53:00,33.4,27.6,30.15,NE,46,2.7,3.5,79,0.00,CLR,,0.02,WeatherDisplay:10.37,2013-03-07 00:53:00,
2013-03-06 19:58:00,33.4,27.9,30.16,NNE,22,2.0,3.5,80,0.00,CLR,,0.02,WeatherDisplay:10.37,2013-03-07 00:58:00,
2013-03-06 20:03:00,33.4,27.9,30.16,NE,44,1.6,3.5,80,0.00,,,0.02,WeatherDisplay:10.37,2013-03-07 01:03:00,
2013-03-06 20:08:00,33.3,28.1,30.16,NE,51,2.2,3.5,81,0.00,,,0.02,WeatherDisplay:10.37,2013-03-07 01:08:00,
2013-03-06 20:13:00,33.3,27.5,30.15,ENE,69,1.9,4.6,79,0.00,,,0.02,WeatherDisplay:10.37,2013-03-07 01:13:00,
2013-03-06 20:18:00,33.3,27.5,30.15,NNW,342,1.1,2.3,79,0.00,,,0.02,WeatherDisplay:10.37,2013-03-07 01:18:00,
2013-03-06 20:23:00,33.4,27.6,30.16,NE,44,1.4,2.3,79,0.00,,,0.02,WeatherDisplay:10.37,2013-03-07 01:23:00,
2013-03-06 20:28:00,33.4,27.6,30.16,NE,56,1.3,3.5,79,0.00,,,0.02,WeatherDisplay:10.37,2013-03-07 01:28:00,
2013-03-06 20:33:00,33.3,27.8,30.16,NE,56,0.8,2.0,80,0.00,,,0.02,WeatherDisplay:10.37,2013-03-07 01:33:00,
2013-03-06 20:38:00,33.3,27.5,30.15,NNE,25,2.9,5.0,79,0.00,,,0.02,WeatherDisplay:10.37,2013-03-07 01:38:00,
2013-03-06 20:43:00,33.3,27.5,30.15,NE,38,2.2,3.5,79,0.00,,,0.02,WeatherDisplay:10.37,2013-03-07 01:43:00,
2013-03-06 20:48:00,33.3,27.5,30.15,East,89,2.9,3.5,79,0.00,,,0.02,WeatherDisplay:10.37,2013-03-07 01:48:00,
2013-03-06 20:53:00,33.3,27.8,30.15,NNE,27,2.6,2.6,80,0.00,,,0.02,WeatherDisplay:10.37,2013-03-07 01:53:00,
2013-03-06 20:58:00,33.2,27.7,30.15,NE,42,2.2,3.5,80,0.00,,,0.02,WeatherDisplay:10.37,2013-03-07 01:58:00,
2013-03-06 21:03:00,33.2,27.4,30.15,ENE,61,1.2,2.3,79,0.00,,,0.02,WeatherDisplay:10.37,2013-03-07 02:03:00,
2013-03-06 21:08:00,33.1,27.6,30.14,NNE,31,1.1,3.5,80,0.00,,,0.02,WeatherDisplay:10.37,2013-03-07 02:08:00,
2013-03-06 21:13:00,33.0,27.5,30.14,NE,49,1.9,3.5,80,0.00,,,0.02,WeatherDisplay:10.37,2013-03-07 02:13:00,
2013-03-06 21:18:00,32.9,27.7,30.14,NE,51,1.1,2.3,81,0.00,,,0.02,WeatherDisplay:10.37,2013-03-07 02:18:00,
2013-03-06 21:23:00,32.9,27.4,30.14,SE,124,2.2,3.5,80,0.00,,,0.02,WeatherDisplay:10.37,2013-03-07 02:23:00,
2013-03-06 21:28:00,32.9,27.4,30.14,NNE,30,0.2,5.8,80,0.00,,,0.02,WeatherDisplay:10.37,2013-03-07 02:28:00,
2013-03-06 21:33:00,32.9,27.4,30.14,NE,53,1.6,4.0,80,0.00,,,0.02,WeatherDisplay:10.37,2013-03-07 02:33:00,
2013-03-06 21:38:00,32.9,27.4,30.14,NNE,15,1.6,3.5,80,0.00,,,0.02,WeatherDisplay:10.37,2013-03-07 02:38:00,
2013-03-06 21:43:00,32.9,27.4,30.14,NNE,14,1.8,3.5,80,0.00,,,0.02,WeatherDisplay:10.37,2013-03-07 02:43:00,
2013-03-06 21:48:00,32.8,27.3,30.14,NE,48,3.2,5.8,80,0.00,,,0.02,WeatherDisplay:10.37,2013-03-07 02:48:00,
2013-03-06 21:53:00,32.8,27.6,30.14,NNE,30,2.7,8.0,81,0.00,,,0.02,WeatherDisplay:10.37,2013-03-07 02:53:00,
2013-03-06 21:58:00,32.8,27.3,30.14,NE,52,2.3,3.5,80,0.00,,,0.02,WeatherDisplay:10.37,2013-03-07 02:58:00,
2013-03-06 22:03:00,32.7,27.5,30.14,NE,52,1.5,2.3,81,0.00,,,0.02,WeatherDisplay:10.37,2013-03-07 03:03:00,
2013-03-06 22:08:00,32.6,27.4,30.14,NNE,29,0.8,2.3,81,0.00,,,0.02,WeatherDisplay:10.37,2013-03-07 03:08:00,
2013-03-06 22:13:00,32.5,27.3,30.14,North,5,3.4,6.9,81,0.00,,,0.02,WeatherDisplay:10.37,2013-03-07 03:13:00,
2013-03-06 22:18:00,32.5,27.3,30.13,NNE,30,2.0,3.5,81,0.00,,,0.02,WeatherDisplay:10.37,2013-03-07 03:18:00,
2013-03-06 22:23:00,32.4,27.2,30.13,NE,39,2.1,4.6,81,0.00,,,0.02,WeatherDisplay:10.37,2013-03-07 03:23:00,
2013-03-06 22:28:00,32.3,27.1,30.13,NE,51,2.1,3.5,81,0.00,,,0.02,WeatherDisplay:10.37,2013-03-07 03:28:00,
2013-03-06 22:33:00,32.3,27.4,30.13,NNE,31,2.6,6.9,82,0.00,,,0.02,WeatherDisplay:10.37,2013-03-07 03:33:00,
2013-03-06 22:38:00,32.2,27.0,30.14,ENE,66,2.4,4.6,81,0.00,,,0.02,WeatherDisplay:10.37,2013-03-07 03:38:00,
2013-03-06 22:43:00,32.2,27.0,30.13,ENE,63,1.7,3.5,81,0.00,,,0.02,WeatherDisplay:10.37,2013-03-07 03:43:00,
2013-03-06 22:48:00,32.1,27.2,30.14,North,360,2.3,4.6,82,0.00,,,0.02,WeatherDisplay:10.37,2013-03-07 03:48:00,
2013-03-06 22:54:00,32.1,27.5,30.13,ENE,60,2.3,4.0,83,0.00,,,0.02,WeatherDisplay:10.37,2013-03-07 03:54:00,
2013-03-06 22:59:00,32.0,27.4,30.13,NNE,32,2.2,3.5,83,0.00,,,0.02,WeatherDisplay:10.37,2013-03-07 03:59:00,
2013-03-06 23:04:00,31.9,27.6,30.13,ENE,57,1.1,2.3,84,0.00,,,0.02,WeatherDisplay:10.37,2013-03-07 04:04:00,
2013-03-06 23:09:00,31.8,27.8,30.13,East,80,1.0,3.5,85,0.00,,,0.02,WeatherDisplay:10.37,2013-03-07 04:09:00,
2013-03-06 23:14:00,31.7,27.7,30.13,ENE,59,1.2,3.5,85,0.00,,,0.02,WeatherDisplay:10.37,2013-03-07 04:14:00,
2013-03-06 23:19:00,31.7,27.7,30.13,ENE,66,1.7,3.5,85,0.00,,,0.02,WeatherDisplay:10.37,2013-03-07 04:19:00,
2013-03-06 23:24:00,31.6,27.6,30.13,NNE,24,0.6,3.5,85,0.00,,,0.02,WeatherDisplay:10.37,2013-03-07 04:24:00,
2013-03-06 23:29:00,31.6,27.6,30.13,ENE,60,1.5,8.1,85,0.00,,,0.02,WeatherDisplay:10.37,2013-03-07 04:29:00,
2013-03-06 23:34:00,31.6,27.6,30.13,NE,55,1.8,3.5,85,0.00,,,0.02,WeatherDisplay:10.37,2013-03-07 04:34:00,
2013-03-06 23:39:00,31.6,27.9,30.13,NE,36,2.3,4.6,86,0.00,,,0.02,WeatherDisplay:10.37,2013-03-07 04:39:00,
2013-03-06 23:44:00,31.5,27.8,30.13,NNE,30,1.3,3.5,86,0.00,,,0.02,WeatherDisplay:10.37,2013-03-07 04:44:00,
2013-03-06 23:49:00,31.5,28.1,30.13,ENE,65,0.9,3.5,87,0.00,,,0.02,WeatherDisplay:10.37,2013-03-07 04:49:00,
2013-03-06 23:54:00,31.4,28.0,30.13,NNE,22,1.9,3.5,87,0.00,,,0.02,WeatherDisplay:10.37,2013-03-07 04:54:00,
2013-03-06 23:59:00,31.3,28.2,30.13,NE,49,0.7,3.5,88,0.00,,,0.02,WeatherDisplay:10.37,2013-03-07 04:59:00,